createdAt,value
2019-05-28T00:00:39.344Z,25.00
2019-05-28T00:03:08.196Z,29.12
2019-05-28T00:05:37.018Z,25.05
2019-05-28T00:08:06.006Z,29.02
2019-05-28T00:10:34.750Z,22.60
2019-05-28T00:13:03.509Z,23.83
2019-05-28T00:15:32.263Z,28.52
2019-05-28T00:18:01.007Z,26.93
2019-05-28T00:20:29.763Z,27.98
2019-05-28T00:22:58.541Z,32.03
2019-05-28T00:25:29.385Z,33.30
2019-05-28T00:27:57.780Z,30.82
2019-05-28T00:30:26.685Z,26.90
2019-05-28T00:32:55.458Z,30.20
2019-05-28T00:35:24.375Z,29.25
2019-05-28T00:37:53.219Z,28.90
2019-05-28T00:40:22.183Z,28.43
2019-05-28T00:42:51.137Z,28.70
2019-05-28T00:45:20.420Z,32.40
2019-05-28T00:47:49.255Z,38.17
2019-05-28T00:50:19.063Z,31.80
2019-05-28T00:52:47.908Z,29.77
2019-05-28T00:55:16.815Z,30.33
2019-05-28T00:57:47.954Z,25.62
2019-05-28T01:00:17.528Z,35.03
2019-05-28T01:02:46.296Z,33.00
2019-05-28T01:05:15.122Z,26.87
2019-05-28T01:07:43.965Z,23.57
2019-05-28T01:10:12.809Z,30.67
2019-05-28T01:12:41.573Z,23.60
2019-05-28T01:15:11.684Z,30.20
2019-05-28T01:17:40.444Z,28.52
2019-05-28T01:20:10.573Z,28.95
2019-05-28T01:22:39.344Z,30.77
2019-05-28T01:25:08.566Z,27.45
2019-05-28T01:27:37.339Z,31.15
2019-05-28T01:30:07.663Z,26.60
2019-05-28T01:32:36.506Z,30.05
2019-05-28T01:35:06.113Z,25.68
2019-05-28T01:37:34.884Z,27.20
2019-05-28T01:40:03.870Z,25.57
2019-05-28T01:42:32.627Z,30.00
2019-05-28T01:45:01.506Z,24.97
2019-05-28T01:47:30.316Z,28.57
2019-05-28T01:49:59.142Z,29.07
2019-05-28T01:52:27.899Z,24.25
2019-05-28T01:54:56.717Z,23.63
2019-05-28T01:57:25.526Z,25.83
2019-05-28T01:59:54.262Z,26.73
2019-05-28T02:02:23.106Z,28.03
2019-05-28T02:04:52.043Z,27.57
2019-05-28T02:07:20.849Z,26.97
2019-05-28T02:09:49.606Z,24.33
2019-05-28T02:12:18.451Z,28.63
2019-05-28T02:14:47.288Z,25.87
2019-05-28T02:17:16.124Z,24.87
2019-05-28T02:19:47.234Z,26.43
2019-05-28T02:22:19.214Z,26.80
2019-05-28T02:24:47.990Z,28.63
2019-05-28T02:27:16.750Z,32.53
2019-05-28T02:29:45.498Z,23.80
2019-05-28T02:32:14.258Z,27.77
2019-05-28T02:34:43.029Z,29.23
2019-05-28T02:37:11.796Z,30.50
2019-05-28T02:39:40.555Z,30.63
2019-05-28T02:42:09.333Z,29.07
2019-05-28T02:44:38.081Z,23.80
2019-05-28T02:47:06.928Z,31.57
2019-05-28T02:49:35.776Z,28.93
2019-05-28T02:52:05.107Z,31.73
2019-05-28T02:54:34.436Z,36.47
2019-05-28T02:57:04.352Z,34.23
2019-05-28T02:59:34.562Z,33.27
2019-05-28T03:02:04.564Z,34.30
2019-05-28T03:04:35.805Z,29.73
2019-05-28T03:07:04.886Z,33.80
2019-05-28T03:09:35.186Z,25.93
2019-05-28T03:12:04.025Z,25.13
2019-05-28T03:14:32.791Z,29.00
2019-05-28T03:17:04.253Z,28.13
2019-05-28T03:19:35.617Z,26.77
2019-05-28T03:22:06.484Z,30.20
2019-05-28T03:24:37.001Z,33.80
2019-05-28T03:27:05.913Z,32.40
2019-05-28T03:29:34.746Z,28.73
2019-05-28T03:32:08.014Z,34.57
2019-05-28T03:34:34.312Z,30.37
2019-05-28T03:37:04.061Z,28.97
2019-05-28T03:39:34.366Z,33.00
2019-05-28T03:42:03.306Z,29.40
2019-05-28T03:44:32.054Z,34.30
2019-05-28T03:47:00.809Z,35.67
2019-05-28T03:49:29.553Z,39.17
2019-05-28T03:51:58.445Z,36.03
2019-05-28T03:54:27.263Z,40.67
2019-05-28T03:56:56.117Z,37.37
2019-05-28T03:59:24.926Z,34.40
2019-05-28T04:01:53.737Z,40.07
2019-05-28T04:04:22.576Z,39.07
2019-05-28T04:06:51.334Z,42.07
2019-05-28T04:09:20.228Z,34.03
2019-05-28T04:11:49.065Z,40.83
2019-05-28T04:14:17.849Z,40.07
2019-05-28T04:16:46.664Z,36.70
2019-05-28T04:19:15.479Z,40.07
2019-05-28T04:21:44.238Z,34.00
2019-05-28T04:24:13.005Z,36.30
2019-05-28T04:26:41.749Z,33.00
2019-05-28T04:29:10.487Z,35.97
2019-05-28T04:31:39.248Z,37.23
2019-05-28T04:34:07.987Z,36.33
2019-05-28T04:36:36.896Z,19.57
2019-05-28T04:39:07.673Z,10.23
2019-05-28T04:41:36.424Z,8.30
2019-05-28T04:44:05.320Z,9.53
2019-05-28T04:46:34.371Z,10.37
2019-05-28T04:49:03.159Z,8.23
2019-05-28T04:51:32.156Z,9.37
2019-05-28T04:54:01.035Z,7.17
2019-05-28T04:56:29.855Z,3.63
2019-05-28T04:58:58.751Z,3.33
2019-05-28T05:01:27.557Z,6.77
2019-05-28T05:03:56.319Z,5.67
2019-05-28T05:06:25.248Z,2.93
2019-05-28T05:08:54.004Z,2.80
2019-05-28T05:11:22.796Z,3.80
2019-05-28T05:13:51.647Z,3.93
2019-05-28T05:16:20.475Z,4.90
2019-05-28T05:18:49.228Z,5.57
2019-05-28T05:21:17.975Z,5.37
2019-05-28T05:23:46.791Z,6.20
2019-05-28T05:26:15.577Z,5.90
2019-05-28T05:28:44.496Z,9.90
2019-05-28T05:31:13.230Z,10.57
2019-05-28T05:33:43.009Z,9.03
2019-05-28T05:36:11.783Z,9.87
2019-05-28T05:38:40.589Z,15.23
2019-05-28T05:41:09.418Z,12.83
2019-05-28T05:43:38.220Z,10.70
2019-05-28T05:46:07.298Z,10.23
2019-05-28T05:48:36.048Z,12.03
2019-05-28T05:51:04.864Z,9.50
2019-05-28T05:53:33.605Z,10.93
2019-05-28T05:56:02.355Z,13.80
2019-05-28T05:58:31.108Z,13.63
2019-05-28T06:01:00.013Z,9.47
2019-05-28T06:03:39.704Z,13.80
2019-05-28T06:05:59.341Z,13.87
2019-05-28T06:08:28.108Z,10.50
2019-05-28T06:10:57.010Z,14.20
2019-05-28T06:13:25.842Z,15.13
2019-05-28T06:15:54.664Z,17.10
2019-05-28T06:18:23.504Z,14.70
2019-05-28T06:21:06.258Z,14.03
2019-05-28T06:23:22.827Z,17.13
2019-05-28T06:25:51.668Z,11.90
2019-05-28T06:28:20.411Z,9.73
2019-05-28T06:30:49.173Z,11.30
2019-05-28T06:33:17.902Z,14.43
2019-05-28T06:35:46.679Z,14.30
2019-05-28T06:38:15.523Z,16.50
2019-05-28T06:40:44.296Z,16.20
2019-05-28T06:43:13.093Z,15.50
2019-05-28T06:45:42.197Z,16.60
2019-05-28T06:48:11.067Z,14.93
2019-05-28T06:50:39.937Z,16.33
2019-05-28T06:53:08.661Z,15.40
2019-05-28T06:55:37.421Z,18.60
2019-05-28T06:58:06.227Z,13.13
2019-05-28T07:00:35.040Z,14.20
2019-05-28T07:03:03.815Z,13.83
2019-05-28T07:05:32.674Z,13.63
2019-05-28T07:08:01.467Z,13.50
2019-05-28T07:10:30.405Z,9.97
2019-05-28T07:12:59.352Z,13.40
2019-05-28T07:15:28.284Z,12.37
2019-05-28T07:17:59.657Z,8.97
2019-05-28T07:20:29.725Z,7.37
2019-05-28T07:22:58.512Z,8.10
2019-05-28T07:25:27.533Z,5.63
2019-05-28T07:28:10.445Z,7.40
2019-05-28T07:30:26.841Z,7.83
2019-05-28T07:32:55.683Z,8.60
2019-05-28T07:35:24.506Z,8.83
2019-05-28T07:37:53.243Z,9.07
2019-05-28T07:40:31.644Z,12.17
2019-05-28T07:42:52.542Z,10.97
2019-05-28T07:45:21.291Z,10.33
2019-05-28T07:47:50.063Z,9.67
2019-05-28T07:50:19.102Z,9.47
2019-05-28T07:52:47.871Z,9.87
2019-05-28T07:55:16.681Z,8.13
2019-05-28T07:57:45.459Z,9.93
2019-05-28T08:00:16.208Z,8.67
2019-05-28T08:02:45.033Z,11.33
2019-05-28T08:05:17.060Z,8.93
2019-05-28T08:07:44.589Z,8.37
2019-05-28T08:10:13.869Z,9.53
2019-05-28T08:12:42.608Z,9.13
2019-05-28T08:15:11.991Z,12.13
2019-05-28T08:17:40.745Z,7.57
2019-05-28T08:20:10.022Z,11.07
2019-05-28T08:22:42.694Z,10.57
2019-05-28T08:25:23.930Z,9.47
2019-05-28T08:27:39.797Z,7.37
2019-05-28T08:30:08.872Z,7.33
2019-05-28T08:32:37.608Z,10.77
2019-05-28T08:35:06.684Z,10.37
2019-05-28T08:37:35.512Z,9.10
2019-05-28T08:40:05.592Z,9.10
2019-05-28T08:42:34.320Z,7.43
2019-05-28T08:45:03.287Z,8.20
2019-05-28T08:47:32.058Z,7.33
2019-05-28T08:50:00.815Z,4.60
2019-05-28T08:52:29.649Z,9.07
2019-05-28T08:54:58.706Z,9.73
2019-05-28T08:57:27.453Z,9.73
2019-05-28T08:59:56.332Z,6.17
2019-05-28T09:02:28.364Z,9.37
2019-05-28T09:04:55.873Z,9.83
2019-05-28T09:07:24.757Z,8.53
2019-05-28T09:09:53.783Z,6.97
2019-05-28T09:12:24.662Z,7.87
2019-05-28T09:14:56.200Z,5.83
2019-05-28T09:17:23.911Z,8.47
2019-05-28T09:19:52.747Z,7.77
2019-05-28T09:22:25.738Z,7.53
2019-05-28T09:24:51.979Z,9.20
2019-05-28T09:27:20.730Z,8.80
2019-05-28T09:29:49.484Z,8.43
2019-05-28T09:32:18.564Z,11.43
2019-05-28T09:34:47.311Z,7.07
2019-05-28T09:37:16.128Z,7.27
2019-05-28T09:39:44.870Z,7.03
2019-05-28T09:42:13.948Z,8.43
2019-05-28T09:44:42.781Z,6.23
2019-05-28T09:47:11.639Z,5.90
2019-05-28T09:49:40.390Z,9.53
2019-05-28T09:52:09.255Z,8.23
2019-05-28T09:54:38.024Z,9.63
2019-05-28T09:57:06.840Z,9.60
2019-05-28T09:59:41.461Z,5.37
2019-05-28T10:02:06.453Z,8.17
2019-05-28T10:04:48.668Z,6.53
2019-05-28T10:07:05.896Z,8.33
2019-05-28T10:09:34.841Z,7.13
2019-05-28T10:12:04.094Z,7.37
2019-05-28T10:14:32.941Z,8.17
2019-05-28T10:17:01.761Z,5.47
2019-05-28T10:19:30.485Z,8.27
2019-05-28T10:21:59.381Z,9.20
2019-05-28T10:24:28.150Z,8.53
2019-05-28T10:26:56.991Z,6.00
2019-05-28T10:29:25.950Z,6.93
2019-05-28T10:31:54.831Z,7.87
2019-05-28T10:34:23.724Z,10.47
2019-05-28T10:36:52.487Z,7.53
2019-05-28T10:39:21.290Z,8.57
2019-05-28T10:41:50.038Z,9.43
2019-05-28T10:44:18.863Z,6.83
2019-05-28T10:46:47.614Z,9.57
2019-05-28T10:49:16.628Z,7.70
2019-05-28T10:51:45.467Z,8.27
2019-05-28T10:54:14.218Z,8.67
2019-05-28T10:56:42.966Z,8.93
2019-05-28T10:59:11.808Z,9.43
2019-05-28T11:01:40.582Z,8.03
2019-05-28T11:04:09.435Z,8.70
2019-05-28T11:06:50.872Z,7.77
2019-05-28T11:09:09.423Z,8.37
2019-05-28T11:11:38.256Z,9.40
2019-05-28T11:14:07.234Z,9.93
2019-05-28T11:16:36.062Z,9.23
2019-05-28T11:19:05.654Z,9.00
2019-05-28T11:21:34.523Z,8.77
2019-05-28T11:24:03.395Z,10.10
2019-05-28T11:26:32.162Z,10.23
2019-05-28T11:29:00.906Z,7.87
2019-05-28T11:31:29.674Z,8.17
2019-05-28T11:33:58.686Z,9.07
2019-05-28T11:36:27.438Z,8.90
2019-05-28T11:38:56.188Z,7.97
2019-05-28T11:41:41.002Z,6.10
2019-05-28T11:43:57.350Z,8.85
2019-05-28T11:46:26.136Z,8.78
2019-05-28T11:48:55.036Z,6.55
2019-05-28T11:51:23.955Z,5.25
2019-05-28T11:53:52.704Z,6.15
2019-05-28T11:56:21.502Z,8.15
2019-05-28T11:58:50.333Z,5.83
2019-05-28T12:01:33.670Z,6.20
2019-05-28T12:03:50.080Z,6.78
2019-05-28T12:06:21.062Z,6.03
2019-05-28T12:08:50.137Z,6.33
2019-05-28T12:11:19.289Z,6.10
2019-05-28T12:13:48.049Z,5.65
2019-05-28T12:16:16.851Z,4.50
2019-05-28T12:18:45.681Z,7.83
2019-05-28T12:21:14.433Z,7.22
2019-05-28T12:23:43.255Z,8.43
2019-05-28T12:26:12.016Z,7.30
2019-05-28T12:28:40.899Z,8.25
2019-05-28T12:31:09.671Z,5.90
2019-05-28T12:33:38.431Z,5.50
2019-05-28T12:36:09.944Z,6.90
2019-05-28T12:38:38.948Z,5.80
2019-05-28T12:41:08.185Z,5.78
2019-05-28T12:43:36.946Z,4.78
2019-05-28T12:46:05.718Z,5.20
2019-05-28T12:48:34.566Z,6.47
2019-05-28T12:51:03.451Z,8.78
2019-05-28T12:53:48.676Z,7.42
2019-05-28T12:56:02.683Z,6.55
2019-05-28T12:58:42.398Z,9.68
2019-05-28T13:01:02.159Z,5.00
2019-05-28T13:03:31.187Z,9.43
2019-05-28T13:06:00.115Z,6.85
2019-05-28T13:08:28.855Z,7.17
2019-05-28T13:10:57.714Z,7.78
2019-05-28T13:13:26.575Z,7.72
2019-05-28T13:15:55.404Z,5.15
2019-05-28T13:18:24.363Z,8.45
2019-05-28T13:20:53.389Z,6.60
2019-05-28T13:23:22.403Z,9.50
2019-05-28T13:25:51.147Z,5.55
2019-05-28T13:28:20.168Z,7.70
2019-05-28T13:30:49.352Z,5.33
2019-05-28T13:33:18.114Z,6.95
2019-05-28T13:35:47.213Z,6.37
2019-05-28T13:38:26.238Z,5.62
2019-05-28T13:40:46.773Z,5.92
2019-05-28T13:43:15.544Z,5.97
2019-05-28T13:45:44.449Z,7.40
2019-05-28T13:48:13.214Z,6.72
2019-05-28T13:50:42.321Z,8.18
2019-05-28T13:53:11.187Z,6.60
2019-05-28T13:55:39.963Z,5.55
2019-05-28T13:58:08.700Z,9.10
2019-05-28T14:00:38.321Z,7.00
2019-05-28T14:03:07.567Z,8.40
2019-05-28T14:05:36.465Z,9.33
2019-05-28T14:08:05.795Z,8.35
2019-05-28T14:10:34.745Z,5.83
2019-05-28T14:13:03.550Z,7.60
2019-05-28T14:15:32.386Z,7.60
2019-05-28T14:18:01.237Z,7.00
2019-05-28T14:20:30.093Z,4.78
2019-05-28T14:22:59.203Z,7.67
2019-05-28T14:25:27.954Z,5.62
2019-05-28T14:27:56.785Z,8.95
2019-05-28T14:30:26.271Z,7.12
2019-05-28T14:32:55.112Z,7.70
2019-05-28T14:35:23.896Z,7.37
2019-05-28T14:37:52.643Z,6.17
2019-05-28T14:40:24.588Z,5.50
2019-05-28T14:42:52.205Z,7.22
2019-05-28T14:45:21.497Z,5.53
2019-05-28T14:47:50.323Z,4.87
2019-05-28T14:50:19.467Z,8.00
2019-05-28T14:52:48.254Z,5.37
2019-05-28T14:55:18.160Z,7.90
2019-05-28T14:57:46.911Z,7.60
2019-05-28T15:00:18.071Z,6.30
2019-05-28T15:02:46.933Z,5.70
2019-05-28T15:05:16.027Z,6.67
2019-05-28T15:07:44.817Z,8.45
2019-05-28T15:10:14.142Z,6.15
2019-05-28T15:12:43.019Z,10.43
2019-05-28T15:15:13.341Z,6.62
2019-05-28T15:17:42.348Z,11.28
2019-05-28T15:20:12.278Z,4.72
2019-05-28T15:22:41.026Z,4.33
2019-05-28T15:25:10.460Z,8.03
2019-05-28T15:27:39.213Z,4.47
2019-05-28T15:30:10.594Z,6.80
2019-05-28T15:32:39.692Z,6.70
2019-05-28T15:35:09.870Z,8.38
2019-05-28T15:37:39.065Z,6.42
2019-05-28T15:40:09.042Z,5.78
2019-05-28T15:42:37.815Z,6.50
2019-05-28T15:45:07.311Z,4.85
2019-05-28T15:47:36.305Z,5.08
2019-05-28T15:50:05.745Z,6.17
2019-05-28T15:52:34.496Z,4.78
2019-05-28T15:55:03.460Z,8.48
2019-05-28T15:57:32.211Z,8.83
2019-05-28T16:00:00.966Z,7.20
2019-05-28T16:02:29.956Z,6.58
2019-05-28T16:04:58.912Z,8.73
2019-05-28T16:07:27.685Z,5.85
2019-05-28T16:09:57.107Z,6.87
2019-05-28T16:12:25.952Z,7.70
2019-05-28T16:14:54.787Z,5.17
2019-05-28T16:17:23.710Z,7.92
2019-05-28T16:19:52.482Z,8.78
2019-05-28T16:22:21.387Z,10.78
2019-05-28T16:24:50.141Z,5.12
2019-05-28T16:27:18.914Z,5.15
2019-05-28T16:29:47.657Z,7.45
2019-05-28T16:32:16.500Z,7.22
2019-05-28T16:34:45.412Z,3.33
2019-05-28T16:37:14.186Z,5.80
2019-05-28T16:39:42.985Z,4.65
2019-05-28T16:42:11.746Z,3.83
2019-05-28T16:44:40.497Z,5.05
2019-05-28T16:47:17.254Z,7.15
2019-05-28T16:49:39.900Z,5.12
2019-05-28T16:52:08.736Z,6.78
2019-05-28T16:54:37.632Z,6.22
2019-05-28T16:57:06.420Z,5.15
2019-05-28T16:59:35.532Z,7.75
2019-05-28T17:02:04.539Z,7.78
2019-05-28T17:04:33.589Z,9.35
2019-05-28T17:07:02.539Z,4.87
2019-05-28T17:09:31.420Z,5.60
2019-05-28T17:12:00.390Z,4.22
2019-05-28T17:14:29.137Z,4.20
2019-05-28T17:16:58.077Z,4.47
2019-05-28T17:19:27.169Z,4.30
2019-05-28T17:21:56.159Z,6.58
2019-05-28T17:24:25.311Z,5.25
2019-05-28T17:26:54.136Z,4.95
2019-05-28T17:29:22.920Z,3.42
2019-05-28T17:31:51.703Z,3.50
2019-05-28T17:34:20.530Z,3.85
2019-05-28T17:36:49.568Z,6.25
2019-05-28T17:39:18.362Z,3.47
2019-05-28T17:41:47.125Z,4.22
2019-05-28T17:44:15.887Z,5.85
2019-05-28T17:46:44.719Z,3.75
2019-05-28T17:49:13.493Z,4.47
2019-05-28T17:51:42.517Z,5.47
2019-05-28T17:54:11.319Z,5.12
2019-05-28T17:56:40.382Z,3.65
2019-05-28T17:59:09.180Z,5.37
2019-05-28T18:01:37.932Z,3.95
2019-05-28T18:04:06.739Z,6.22
2019-05-28T18:06:35.516Z,5.85
2019-05-28T18:09:06.708Z,3.17
2019-05-28T18:11:35.570Z,2.70
2019-05-28T18:14:04.531Z,3.98
2019-05-28T18:16:33.343Z,3.92
2019-05-28T18:19:02.296Z,4.55
2019-05-28T18:21:31.188Z,3.22
2019-05-28T18:24:00.248Z,5.28
2019-05-28T18:26:31.737Z,8.70
2019-05-28T18:29:03.895Z,4.87
2019-05-28T18:31:32.900Z,6.20
2019-05-28T18:34:01.897Z,4.70
2019-05-28T18:36:36.024Z,7.30
2019-05-28T18:39:07.157Z,3.50
2019-05-28T18:41:38.317Z,3.55
2019-05-28T18:44:07.268Z,5.05
2019-05-28T18:46:36.073Z,3.40
2019-05-28T18:49:05.001Z,3.50
2019-05-28T18:51:33.759Z,5.25
2019-05-28T18:54:02.603Z,5.83
2019-05-28T18:56:31.972Z,3.75
2019-05-28T18:59:00.806Z,2.72
2019-05-28T19:01:29.720Z,5.95
2019-05-28T19:03:58.569Z,3.40
2019-05-28T19:06:27.354Z,6.85
2019-05-28T19:08:56.389Z,2.10
2019-05-28T19:11:37.303Z,2.87
2019-05-28T19:13:56.050Z,3.33
2019-05-28T19:16:25.258Z,3.22
2019-05-28T19:19:19.821Z,2.70
2019-05-28T19:21:40.173Z,3.20
2019-05-28T19:24:09.168Z,5.33
2019-05-28T19:26:38.137Z,3.80
2019-05-28T19:29:07.290Z,4.95
2019-05-28T19:31:36.187Z,3.63
2019-05-28T19:34:05.077Z,2.63
2019-05-28T19:36:34.486Z,5.17
2019-05-28T19:39:04.839Z,5.37
2019-05-28T19:41:33.595Z,4.93
2019-05-28T19:44:02.366Z,5.00
2019-05-28T19:46:31.105Z,4.43
2019-05-28T19:49:01.438Z,4.47
2019-05-28T19:51:30.307Z,3.33
2019-05-28T19:53:59.326Z,6.23
2019-05-28T19:56:28.167Z,6.13
2019-05-28T19:58:57.155Z,4.10
2019-05-28T20:01:25.949Z,5.77
2019-05-28T20:03:56.227Z,3.17
2019-05-28T20:06:25.148Z,4.80
2019-05-28T20:08:53.906Z,5.60
2019-05-28T20:11:22.759Z,4.20
2019-05-28T20:13:51.644Z,5.40
2019-05-28T20:16:20.413Z,4.03
2019-05-28T20:18:49.376Z,3.77
2019-05-28T20:21:18.104Z,2.90
2019-05-28T20:23:47.823Z,5.30
2019-05-28T20:26:16.576Z,8.77
2019-05-28T20:28:45.434Z,2.90
2019-05-28T20:31:14.270Z,3.40
2019-05-28T20:33:43.180Z,5.67
2019-05-28T20:36:12.152Z,3.30
2019-05-28T20:38:40.988Z,6.43
2019-05-28T20:41:10.191Z,4.07
2019-05-28T20:43:39.474Z,3.03
2019-05-28T20:46:08.593Z,6.33
2019-05-28T20:48:37.441Z,6.80
2019-05-28T20:51:16.096Z,7.30
2019-05-28T20:53:38.083Z,3.77
2019-05-28T20:56:06.928Z,4.47
2019-05-28T20:58:40.320Z,2.43
2019-05-28T21:01:06.329Z,5.17
2019-05-28T21:03:35.109Z,5.73
2019-05-28T21:06:03.898Z,2.20
2019-05-28T21:08:32.740Z,4.63
2019-05-28T21:11:01.620Z,5.50
2019-05-28T21:13:30.386Z,2.80
2019-05-28T21:15:59.289Z,5.73
2019-05-28T21:18:28.052Z,3.67
2019-05-28T21:20:57.592Z,3.30
2019-05-28T21:23:26.629Z,4.53
2019-05-28T21:25:56.213Z,4.53
2019-05-28T21:28:26.010Z,3.70
2019-05-28T21:30:55.159Z,4.83
2019-05-28T21:33:23.927Z,6.00
2019-05-28T21:35:53.480Z,5.67
2019-05-28T21:38:22.342Z,5.77
2019-05-28T21:40:51.520Z,4.33
2019-05-28T21:43:20.828Z,4.80
2019-05-28T21:45:49.617Z,6.47
2019-05-28T21:48:18.371Z,4.90
2019-05-28T21:50:47.159Z,6.03
2019-05-28T21:53:16.031Z,4.00
2019-05-28T21:55:45.180Z,3.83
2019-05-28T21:58:14.213Z,7.00
2019-05-28T22:00:49.385Z,7.33
2019-05-28T22:03:18.502Z,4.33
2019-05-28T22:05:47.351Z,4.47
2019-05-28T22:08:16.176Z,5.70
2019-05-28T22:10:45.016Z,4.93
2019-05-28T22:13:21.770Z,8.00
2019-05-28T22:15:44.529Z,5.33
2019-05-28T22:18:13.305Z,4.80
2019-05-28T22:20:42.326Z,7.10
2019-05-28T22:23:11.242Z,5.63
2019-05-28T22:25:40.057Z,4.87
2019-05-28T22:28:08.823Z,6.63
2019-05-28T22:30:37.569Z,4.93
2019-05-28T22:33:06.328Z,14.57
2019-05-28T22:35:35.314Z,5.97
2019-05-28T22:38:05.371Z,6.90
2019-05-28T22:40:34.552Z,9.63
2019-05-28T22:43:03.937Z,5.77
2019-05-28T22:45:33.790Z,6.73
2019-05-28T22:48:06.414Z,5.63
2019-05-28T22:50:33.234Z,6.03
2019-05-28T22:53:02.002Z,6.20
2019-05-28T22:55:30.834Z,8.20
2019-05-28T22:58:00.211Z,5.77
2019-05-28T23:00:29.371Z,7.63
2019-05-28T23:02:58.824Z,8.00
2019-05-28T23:05:27.922Z,7.27
2019-05-28T23:07:56.710Z,6.90
2019-05-28T23:10:25.583Z,6.97
2019-05-28T23:12:54.355Z,6.57
2019-05-28T23:15:23.292Z,6.07
2019-05-28T23:17:52.057Z,9.20
2019-05-28T23:20:20.892Z,5.80
2019-05-28T23:22:49.651Z,7.07
2019-05-28T23:25:18.563Z,6.30
2019-05-28T23:27:47.305Z,8.93
2019-05-28T23:30:24.911Z,6.33
2019-05-28T23:32:47.303Z,5.63
2019-05-28T23:35:16.134Z,7.13
2019-05-28T23:37:44.931Z,8.83
2019-05-28T23:40:13.928Z,6.30
2019-05-28T23:42:42.859Z,5.17
2019-05-28T23:45:11.894Z,6.97
2019-05-28T23:47:40.772Z,7.20
2019-05-28T23:50:14.826Z,6.00
2019-05-28T23:52:41.873Z,7.13
2019-05-28T23:55:11.853Z,9.50
2019-05-28T23:57:40.685Z,8.67
